Time;durP1;ratioP1;P1;durP2;ratioP2;P2;SDS_P1;SDS_P2;PMS_P1;PMS_P2;Temp;Humidity;BMP_temperature;BMP_pressure;BME280_temperature;BME280_humidity;BME280_pressure;Samples;Min_cycle;Max_cycle;Signal;HPM_P1;HPM_P2
2023/09/20 00:01:12;;;;;;;;;;;16.70;99.90;;;;;;4918506;29;19992;-66
2023/09/20 00:03:38;;;;;;;;;;;16.70;99.90;;;;;;4918896;29;20037;-66
2023/09/20 00:06:09;;;;;;;;;;;16.60;99.90;;;;;;4909400;29;20345;-66
2023/09/20 00:08:35;;;;;;;;;;;16.60;99.90;;;;;;4908482;29;19942;-66
2023/09/20 00:11:01;;;;;;;;;;;16.50;99.90;;;;;;4910277;29;20038;-67
2023/09/20 00:13:27;;;;;;;;;;;16.50;99.90;;;;;;4897622;29;20004;-66
2023/09/20 00:15:55;;;;;;;;;;;16.40;99.90;;;;;;4900876;29;20327;-66
2023/09/20 00:18:22;;;;;;;;;;;16.40;99.90;;;;;;4920271;29;19948;-66
2023/09/20 00:20:48;;;;;;;;;;;16.40;99.90;;;;;;4919240;29;19987;-66
2023/09/20 00:23:17;;;;;;;;;;;16.40;99.90;;;;;;4914838;29;19919;-67
2023/09/20 00:25:42;;;;;;;;;;;16.40;99.90;;;;;;4918170;28;19938;-66
2023/09/20 00:28:11;;;;;;;;;;;16.40;99.90;;;;;;4918999;29;19998;-66
2023/09/20 00:30:37;;;;;;;;;;;16.50;99.90;;;;;;4920941;29;19961;-66
2023/09/20 00:33:02;;;;;;;;;;;16.60;99.90;;;;;;4917796;29;20311;-66
2023/09/20 00:35:28;;;;;;;;;;;16.60;99.90;;;;;;4916582;29;19943;-67
2023/09/20 00:37:53;;;;;;;;;;;16.70;99.90;;;;;;4907595;29;19943;-66
2023/09/20 00:40:21;;;;;;;;;;;16.70;99.90;;;;;;4897729;29;20012;-66
2023/09/20 00:42:47;;;;;;;;;;;16.80;99.90;;;;;;4925465;28;20443;-66
2023/09/20 00:45:13;;;;;;;;;;;16.80;99.90;;;;;;4914277;29;20415;-66
2023/09/20 00:47:41;;;;;;;;;;;16.80;99.90;;;;;;4908453;29;20527;-66
2023/09/20 00:50:08;;;;;;;;;;;16.90;99.90;;;;;;4918293;29;19942;-66
2023/09/20 00:52:33;;;;;;;;;;;16.90;99.90;;;;;;4914954;29;20019;-66
2023/09/20 00:54:59;;;;;;;;;;;16.90;99.90;;;;;;4917689;29;19933;-66
2023/09/20 00:57:25;;;;;;;;;;;16.90;99.90;;;;;;4917070;29;19942;-66
2023/09/20 00:59:51;;;;;;;;;;;17.00;99.90;;;;;;4916170;29;20005;-66
2023/09/20 01:02:18;;;;;;;;;;;17.00;99.90;;;;;;4911250;29;20052;-66
2023/09/20 01:04:44;;;;;;;;;;;17.00;99.90;;;;;;4910930;29;19936;-66
2023/09/20 01:07:10;;;;;;;;;;;17.00;99.90;;;;;;4915841;28;19954;-67
2023/09/20 01:09:36;;;;;;;;;;;16.90;99.90;;;;;;4914296;29;20095;-66
2023/09/20 01:12:02;;;;;;;;;;;16.90;99.90;;;;;;4916032;29;20629;-66
2023/09/20 01:14:28;;;;;;;;;;;16.90;99.90;;;;;;4915225;29;19951;-66
2023/09/20 01:16:54;;;;;;;;;;;16.90;99.90;;;;;;4919368;29;19998;-65
2023/09/20 01:19:19;;;;;;;;;;;16.80;99.90;;;;;;4917009;29;19965;-66
2023/09/20 01:21:46;;;;;;;;;;;16.80;99.90;;;;;;4916369;29;19994;-65
2023/09/20 01:24:13;;;;;;;;;;;16.80;99.90;;;;;;4911212;29;19942;-65
2023/09/20 01:26:42;;;;;;;;;;;16.70;99.90;;;;;;4912128;29;19956;-65
2023/09/20 01:29:07;;;;;;;;;;;16.60;99.90;;;;;;4933618;28;19970;-65
2023/09/20 01:31:36;;;;;;;;;;;16.60;99.90;;;;;;4928633;28;20059;-65
2023/09/20 01:34:02;;;;;;;;;;;16.60;99.90;;;;;;4923496;28;20043;-66
2023/09/20 01:36:27;;;;;;;;;;;16.40;99.90;;;;;;4930009;28;19954;-66
2023/09/20 01:38:53;;;;;;;;;;;16.40;99.90;;;;;;4930581;28;20333;-66
2023/09/20 01:41:22;;;;;;;;;;;16.40;99.90;;;;;;4928528;28;19943;-65
2023/09/20 01:43:47;;;;;;;;;;;16.30;99.90;;;;;;4928136;28;20072;-65
2023/09/20 01:46:14;;;;;;;;;;;16.20;99.90;;;;;;4932607;28;20024;-64
2023/09/20 01:48:40;;;;;;;;;;;16.20;99.90;;;;;;4933162;28;19969;-65
2023/09/20 01:51:06;;;;;;;;;;;16.20;99.90;;;;;;4930414;28;19930;-65
2023/09/20 01:53:32;;;;;;;;;;;16.00;99.90;;;;;;4916395;28;21376;-65
2023/09/20 01:55:58;;;;;;;;;;;16.00;99.90;;;;;;4931565;28;21154;-65
2023/09/20 01:58:23;;;;;;;;;;;15.90;99.90;;;;;;4932664;28;19935;-65
2023/09/20 02:00:50;;;;;;;;;;;15.80;99.90;;;;;;4927311;28;20062;-65
2023/09/20 02:03:16;;;;;;;;;;;15.60;99.90;;;;;;4932119;28;20301;-65
2023/09/20 02:05:47;;;;;;;;;;;15.60;99.90;;;;;;4934809;28;20114;-65
2023/09/20 02:08:13;;;;;;;;;;;15.50;99.90;;;;;;4932919;28;19942;-65
2023/09/20 02:10:39;;;;;;;;;;;15.50;99.90;;;;;;4938142;28;19942;-67
2023/09/20 02:13:05;;;;;;;;;;;15.50;99.90;;;;;;4934400;28;19934;-67
2023/09/20 02:15:34;;;;;;;;;;;15.40;99.90;;;;;;4934308;28;19990;-67
2023/09/20 02:18:01;;;;;;;;;;;15.40;99.90;;;;;;4927647;28;20001;-67
2023/09/20 02:20:27;;;;;;;;;;;15.30;99.90;;;;;;4929568;28;19963;-67
2023/09/20 02:22:53;;;;;;;;;;;15.20;99.90;;;;;;4930518;28;19937;-67
2023/09/20 02:25:22;;;;;;;;;;;15.00;99.90;;;;;;4926307;28;19973;-67
2023/09/20 02:27:51;;;;;;;;;;;14.90;99.90;;;;;;4928303;28;19940;-66
2023/09/20 02:30:19;;;;;;;;;;;14.90;99.90;;;;;;4928471;28;19934;-65
2023/09/20 02:32:46;;;;;;;;;;;14.80;99.90;;;;;;4930260;28;19993;-65
2023/09/20 02:35:12;;;;;;;;;;;14.70;99.90;;;;;;4929879;28;19990;-65
2023/09/20 02:37:40;;;;;;;;;;;14.80;99.90;;;;;;4926683;28;19930;-65
2023/09/20 02:40:17;;;;;;;;;;;14.70;99.90;;;;;;4932694;28;20067;-65
2023/09/20 02:42:52;;;;;;;;;;;14.70;99.90;;;;;;4948270;28;19975;-65
2023/09/20 02:45:22;;;;;;;;;;;14.50;99.90;;;;;;4932000;28;19979;-65
2023/09/20 02:47:48;;;;;;;;;;;14.60;99.90;;;;;;4936241;28;19948;-65
2023/09/20 02:50:16;;;;;;;;;;;14.60;99.90;;;;;;4935953;28;20297;-65
2023/09/20 02:52:47;;;;;;;;;;;14.50;99.90;;;;;;4932974;28;20313;-65
2023/09/20 02:55:13;;;;;;;;;;;14.40;99.90;;;;;;4934292;28;19935;-65
2023/09/20 02:57:39;;;;;;;;;;;14.50;99.90;;;;;;4936575;28;19937;-65
2023/09/20 03:00:15;;;;;;;;;;;14.50;99.90;;;;;;4930567;28;19962;-65
2023/09/20 03:03:04;;;;;;;;;;;14.40;99.90;;;;;;4926790;28;19977;-65
2023/09/20 03:05:34;;;;;;;;;;;14.40;99.90;;;;;;4931642;28;20040;-67
2023/09/20 03:08:13;;;;;;;;;;;14.30;99.90;;;;;;4937606;28;19988;-66
2023/09/20 03:10:41;;;;;;;;;;;14.40;99.90;;;;;;4930951;28;19938;-67
2023/09/20 03:13:07;;;;;;;;;;;14.40;99.90;;;;;;4937815;28;19934;-67
2023/09/20 03:15:32;;;;;;;;;;;14.40;99.90;;;;;;4928367;28;19934;-66
2023/09/20 03:18:02;;;;;;;;;;;14.40;99.90;;;;;;4932219;28;19967;-66
2023/09/20 03:20:32;;;;;;;;;;;14.40;99.90;;;;;;4932436;28;19970;-67
2023/09/20 03:23:03;;;;;;;;;;;14.40;99.90;;;;;;4935380;28;19977;-67
2023/09/20 03:25:28;;;;;;;;;;;14.40;99.90;;;;;;4933874;28;20577;-65
2023/09/20 03:27:55;;;;;;;;;;;14.40;99.90;;;;;;4933206;28;20048;-65
2023/09/20 03:30:21;;;;;;;;;;;14.30;99.90;;;;;;4934221;28;19930;-64
2023/09/20 03:32:47;;;;;;;;;;;14.30;99.90;;;;;;4935829;28;19936;-65
2023/09/20 03:35:14;;;;;;;;;;;14.30;99.90;;;;;;4934119;28;19948;-65
2023/09/20 03:37:40;;;;;;;;;;;14.40;99.90;;;;;;4929803;28;19937;-65
2023/09/20 03:40:10;;;;;;;;;;;14.40;99.90;;;;;;4933267;28;20308;-65
2023/09/20 03:42:40;;;;;;;;;;;14.40;99.90;;;;;;4928293;28;19996;-65
2023/09/20 03:45:10;;;;;;;;;;;14.40;99.90;;;;;;4929411;28;20384;-65
2023/09/20 03:47:36;;;;;;;;;;;14.40;99.90;;;;;;4949003;28;19928;-65
2023/09/20 03:50:03;;;;;;;;;;;14.40;99.90;;;;;;4930456;28;19992;-65
2023/09/20 03:52:28;;;;;;;;;;;14.30;99.90;;;;;;4930833;28;19959;-65
2023/09/20 03:54:54;;;;;;;;;;;14.10;99.90;;;;;;4934484;28;20360;-65
2023/09/20 03:57:24;;;;;;;;;;;14.10;99.90;;;;;;4926787;28;21827;-65
2023/09/20 03:59:51;;;;;;;;;;;14.10;99.90;;;;;;4921331;29;20095;-65
2023/09/20 04:02:16;;;;;;;;;;;14.10;99.90;;;;;;4933427;28;19996;-65
2023/09/20 04:04:42;;;;;;;;;;;14.00;99.90;;;;;;4932024;28;19933;-65
2023/09/20 04:07:08;;;;;;;;;;;13.90;99.90;;;;;;4933542;28;19929;-65
2023/09/20 04:09:35;;;;;;;;;;;13.90;99.90;;;;;;4935300;28;19939;-65
2023/09/20 04:12:01;;;;;;;;;;;13.90;99.90;;;;;;4934421;28;19967;-65
2023/09/20 04:14:27;;;;;;;;;;;14.00;99.90;;;;;;4933667;28;20077;-65
2023/09/20 04:16:53;;;;;;;;;;;14.00;99.90;;;;;;4931649;28;20036;-64
2023/09/20 04:19:21;;;;;;;;;;;14.10;99.90;;;;;;4931748;28;20493;-65
2023/09/20 04:21:47;;;;;;;;;;;14.10;99.90;;;;;;4933710;28;19924;-66
2023/09/20 04:24:12;;;;;;;;;;;14.10;99.90;;;;;;4931738;28;19942;-66
2023/09/20 04:26:38;;;;;;;;;;;14.00;99.90;;;;;;4939212;28;20421;-66
2023/09/20 04:29:04;;;;;;;;;;;13.90;99.90;;;;;;4936063;28;20067;-66
2023/09/20 04:31:32;;;;;;;;;;;13.90;99.90;;;;;;4946542;28;19986;-66
2023/09/20 04:33:57;;;;;;;;;;;13.90;99.90;;;;;;4938892;28;19969;-67
2023/09/20 04:36:23;;;;;;;;;;;13.80;99.90;;;;;;4937587;28;19976;-66
2023/09/20 04:38:50;;;;;;;;;;;13.80;99.90;;;;;;4938727;28;20306;-66
2023/09/20 04:41:15;;;;;;;;;;;13.80;99.90;;;;;;4935086;28;20012;-66
2023/09/20 04:43:41;;;;;;;;;;;13.80;99.90;;;;;;4939739;28;20424;-66
2023/09/20 04:46:07;;;;;;;;;;;13.80;99.90;;;;;;4933486;28;19942;-67
2023/09/20 04:48:33;;;;;;;;;;;13.90;99.90;;;;;;4937999;28;19940;-66
2023/09/20 04:50:59;;;;;;;;;;;13.90;99.90;;;;;;4934747;28;20051;-66
2023/09/20 04:53:25;;;;;;;;;;;13.90;99.90;;;;;;4938976;28;19938;-66
2023/09/20 04:55:51;;;;;;;;;;;13.90;99.90;;;;;;4940967;28;19933;-66
2023/09/20 04:58:17;;;;;;;;;;;14.00;99.90;;;;;;4933726;28;20713;-66
2023/09/20 05:00:43;;;;;;;;;;;14.00;99.90;;;;;;4930621;28;19952;-66
2023/09/20 05:03:11;;;;;;;;;;;14.10;99.90;;;;;;4930379;28;20482;-66
2023/09/20 05:05:36;;;;;;;;;;;14.20;99.90;;;;;;4927376;28;19936;-66
2023/09/20 05:08:03;;;;;;;;;;;14.20;99.90;;;;;;4924863;28;19938;-66
2023/09/20 05:10:29;;;;;;;;;;;14.30;99.90;;;;;;4928213;28;19991;-65
2023/09/20 05:12:55;;;;;;;;;;;14.50;99.90;;;;;;4929078;28;20056;-66
2023/09/20 05:15:23;;;;;;;;;;;14.50;99.90;;;;;;4929351;28;19935;-67
2023/09/20 05:17:49;;;;;;;;;;;14.50;99.90;;;;;;4929060;28;19994;-66
2023/09/20 05:20:14;;;;;;;;;;;14.50;99.90;;;;;;4924736;28;20581;-66
2023/09/20 05:22:40;;;;;;;;;;;14.60;99.90;;;;;;4924747;28;19938;-67
2023/09/20 05:25:07;;;;;;;;;;;14.70;99.90;;;;;;4925174;28;19961;-67
2023/09/20 05:27:33;;;;;;;;;;;14.80;99.90;;;;;;4928158;28;19945;-67
2023/09/20 05:29:59;;;;;;;;;;;14.80;99.90;;;;;;4928188;28;20296;-68
2023/09/20 05:32:24;;;;;;;;;;;14.90;99.90;;;;;;4920988;28;19939;-67
2023/09/20 05:34:50;;;;;;;;;;;15.00;99.90;;;;;;4923262;28;19955;-67
2023/09/20 05:37:16;;;;;;;;;;;15.20;99.90;;;;;;4926736;28;20062;-68
2023/09/20 05:39:43;;;;;;;;;;;15.30;99.90;;;;;;4927046;28;19951;-67
2023/09/20 05:42:09;;;;;;;;;;;15.50;99.90;;;;;;4935013;28;19936;-67
2023/09/20 05:44:36;;;;;;;;;;;15.60;99.90;;;;;;4932230;28;19983;-67
2023/09/20 05:47:03;;;;;;;;;;;15.80;99.90;;;;;;4930882;28;19930;-67
2023/09/20 05:49:29;;;;;;;;;;;16.10;99.90;;;;;;4932674;28;19930;-67
2023/09/20 05:51:56;;;;;;;;;;;16.30;99.90;;;;;;4936591;28;20605;-67
2023/09/20 05:54:22;;;;;;;;;;;16.50;99.90;;;;;;4932993;28;20504;-67
2023/09/20 05:56:48;;;;;;;;;;;16.70;99.90;;;;;;4936058;28;20039;-67
2023/09/20 05:59:14;;;;;;;;;;;16.90;99.90;;;;;;4932206;28;20000;-67
2023/09/20 06:01:40;;;;;;;;;;;17.00;99.90;;;;;;4934160;28;19933;-67
2023/09/20 06:04:07;;;;;;;;;;;17.20;99.90;;;;;;4931840;28;19939;-68
2023/09/20 06:06:33;;;;;;;;;;;17.20;99.90;;;;;;4937838;28;20468;-68
2023/09/20 06:08:58;;;;;;;;;;;17.30;99.90;;;;;;4931597;28;20025;-68
2023/09/20 06:11:25;;;;;;;;;;;17.40;99.90;;;;;;4936546;28;20024;-67
2023/09/20 06:13:51;;;;;;;;;;;17.40;99.90;;;;;;4935751;28;19933;-67
2023/09/20 06:16:17;;;;;;;;;;;17.50;99.90;;;;;;4928201;28;20056;-68
2023/09/20 06:18:42;;;;;;;;;;;17.50;99.90;;;;;;4931098;28;20059;-67
2023/09/20 06:21:09;;;;;;;;;;;17.50;99.90;;;;;;4931193;28;19934;-68
2023/09/20 06:23:34;;;;;;;;;;;17.60;99.90;;;;;;4931433;28;19940;-68
2023/09/20 06:26:07;;;;;;;;;;;17.60;99.90;;;;;;4931084;28;20254;-68
2023/09/20 06:28:33;;;;;;;;;;;17.70;99.90;;;;;;4934884;28;19936;-67
2023/09/20 06:30:59;;;;;;;;;;;17.70;99.90;;;;;;4935526;28;19936;-68
2023/09/20 06:33:24;;;;;;;;;;;17.80;99.90;;;;;;4935517;28;20403;-67
2023/09/20 06:35:50;;;;;;;;;;;17.80;99.90;;;;;;4930335;28;19953;-67
2023/09/20 06:38:16;;;;;;;;;;;17.80;99.90;;;;;;4934929;28;19963;-67
2023/09/20 06:40:49;;;;;;;;;;;17.90;99.90;;;;;;4932645;28;20593;-67
2023/09/20 06:43:16;;;;;;;;;;;18.00;99.90;;;;;;4935750;28;19934;-67
2023/09/20 06:45:49;;;;;;;;;;;18.10;99.90;;;;;;4938721;28;19972;-65
2023/09/20 06:48:15;;;;;;;;;;;18.20;99.90;;;;;;4935704;28;20609;-66
2023/09/20 06:50:43;;;;;;;;;;;18.40;99.90;;;;;;4936065;28;20331;-66
2023/09/20 06:53:08;;;;;;;;;;;18.60;99.90;;;;;;4938991;28;20447;-66
2023/09/20 06:55:34;;;;;;;;;;;18.70;99.90;;;;;;4940384;28;20036;-66
2023/09/20 06:57:59;;;;;;;;;;;18.80;99.90;;;;;;4934864;28;19934;-66
2023/09/20 07:00:25;;;;;;;;;;;19.00;99.90;;;;;;4935573;28;20023;-66
2023/09/20 07:02:59;;;;;;;;;;;19.10;99.90;;;;;;4929662;28;19940;-66
2023/09/20 07:05:28;;;;;;;;;;;19.30;99.90;;;;;;4927282;28;19936;-66
2023/09/20 07:07:54;;;;;;;;;;;19.60;99.90;;;;;;4928042;28;19926;-66
2023/09/20 07:10:20;;;;;;;;;;;19.70;99.90;;;;;;4931795;28;19975;-65
2023/09/20 07:12:46;;;;;;;;;;;20.00;99.90;;;;;;4925284;28;20020;-65
2023/09/20 07:15:36;;;;;;;;;;;20.10;99.90;;;;;;4929843;28;20024;-65
2023/09/20 07:18:06;;;;;;;;;;;20.20;99.90;;;;;;4932756;28;19942;-65
2023/09/20 07:20:32;;;;;;;;;;;20.20;99.90;;;;;;4927220;28;20450;-66
2023/09/20 07:23:01;;;;;;;;;;;20.20;99.90;;;;;;4931050;28;20014;-66
2023/09/20 07:25:27;;;;;;;;;;;20.20;99.90;;;;;;4929846;28;19932;-67
2023/09/20 07:27:55;;;;;;;;;;;20.20;99.90;;;;;;4934612;28;19994;-67
2023/09/20 07:30:22;;;;;;;;;;;20.30;99.90;;;;;;4933663;28;20046;-67
2023/09/20 07:32:51;;;;;;;;;;;20.40;99.90;;;;;;4925407;28;20665;-68
2023/09/20 07:35:26;;;;;;;;;;;20.40;99.90;;;;;;4932678;28;19951;-68
2023/09/20 07:37:58;;;;;;;;;;;20.50;99.90;;;;;;4924558;28;19976;-67
2023/09/20 07:40:28;;;;;;;;;;;20.70;99.90;;;;;;4928138;28;19960;-67
2023/09/20 07:42:59;;;;;;;;;;;20.90;99.90;;;;;;4938061;28;19962;-67
2023/09/20 07:45:26;;;;;;;;;;;21.10;99.90;;;;;;4933065;28;19930;-67
2023/09/20 07:47:52;;;;;;;;;;;21.30;99.90;;;;;;4935567;28;19929;-67
2023/09/20 07:50:17;;;;;;;;;;;21.50;99.90;;;;;;4928463;28;19932;-67
2023/09/20 07:52:43;;;;;;;;;;;21.70;99.90;;;;;;4932040;28;19932;-67
2023/09/20 07:55:09;;;;;;;;;;;21.80;99.90;;;;;;4925828;28;21867;-65
2023/09/20 07:57:34;;;;;;;;;;;21.90;99.90;;;;;;4928929;28;21624;-65
2023/09/20 08:00:00;;;;;;;;;;;21.90;99.90;;;;;;4930533;28;20051;-65
2023/09/20 08:02:26;;;;;;;;;;;22.00;99.90;;;;;;4928909;28;19922;-65
2023/09/20 08:04:51;;;;;;;;;;;22.00;99.90;;;;;;4926938;28;20072;-65
2023/09/20 08:07:17;;;;;;;;;;;22.20;99.90;;;;;;4932007;28;20401;-65
2023/09/20 08:09:43;;;;;;;;;;;22.30;99.90;;;;;;4936182;28;19937;-65
2023/09/20 08:12:11;;;;;;;;;;;22.40;99.90;;;;;;4937048;28;19937;-65
2023/09/20 08:14:37;;;;;;;;;;;22.50;99.90;;;;;;4934162;28;19927;-65
2023/09/20 08:19:47;;;;;;;;;;;22.60;99.90;;;;;;4934284;28;20325;-65
2023/09/20 08:22:15;;;;;;;;;;;22.70;99.90;;;;;;4933271;28;19937;-65
2023/09/20 09:00:27;;;;;;;;;;;23.50;99.90;;;;;;4938938;28;19990;-67
2023/09/20 09:02:54;;;;;;;;;;;23.60;99.90;;;;;;4932534;28;19932;-67
2023/09/20 09:05:21;;;;;;;;;;;23.70;99.90;;;;;;4932897;28;19934;-67
2023/09/20 09:07:47;;;;;;;;;;;23.70;99.90;;;;;;4930873;28;19956;-67
2023/09/20 09:10:13;;;;;;;;;;;23.80;99.90;;;;;;4935612;28;20440;-68
2023/09/20 09:12:43;;;;;;;;;;;23.80;99.90;;;;;;4932375;28;19954;-67
2023/09/20 09:15:09;;;;;;;;;;;23.90;99.90;;;;;;4932189;28;19924;-65
2023/09/20 09:17:39;;;;;;;;;;;24.00;99.90;;;;;;4937120;28;19931;-66
2023/09/20 09:20:05;;;;;;;;;;;24.10;99.90;;;;;;4906787;29;20007;-65
2023/09/20 09:22:33;;;;;;;;;;;24.10;99.90;;;;;;4916090;29;20390;-65
2023/09/20 09:24:59;;;;;;;;;;;24.20;99.90;;;;;;4912042;29;19929;-65
2023/09/20 09:27:24;;;;;;;;;;;24.20;99.90;;;;;;4902368;29;19933;-65
2023/09/20 09:29:50;;;;;;;;;;;24.20;99.90;;;;;;4917679;29;19937;-65
2023/09/20 09:32:16;;;;;;;;;;;24.30;99.90;;;;;;4918836;29;19976;-67
2023/09/20 09:34:42;;;;;;;;;;;24.30;99.90;;;;;;4920508;29;20043;-67
2023/09/20 09:37:08;;;;;;;;;;;24.40;99.90;;;;;;4922675;29;19954;-68
2023/09/20 09:39:36;;;;;;;;;;;24.50;99.90;;;;;;4917128;29;20583;-67
2023/09/20 09:42:02;;;;;;;;;;;24.50;99.90;;;;;;4917343;29;19936;-67
2023/09/20 09:44:27;;;;;;;;;;;24.60;99.90;;;;;;4919929;29;20631;-67
2023/09/20 09:46:56;;;;;;;;;;;24.60;99.90;;;;;;4918120;29;19934;-67
2023/09/20 09:49:24;;;;;;;;;;;24.60;99.90;;;;;;4913252;29;20628;-66
2023/09/20 09:51:51;;;;;;;;;;;24.60;99.90;;;;;;4917574;29;19935;-65
2023/09/20 09:54:17;;;;;;;;;;;24.50;99.90;;;;;;4908144;29;19981;-65
2023/09/20 09:56:43;;;;;;;;;;;24.40;99.90;;;;;;4916903;29;19929;-65
2023/09/20 09:59:08;;;;;;;;;;;24.50;99.90;;;;;;4914257;29;19960;-65
2023/09/20 10:01:36;;;;;;;;;;;24.60;99.90;;;;;;4910501;29;19943;-67
2023/09/20 10:04:05;;;;;;;;;;;24.80;99.90;;;;;;4914678;29;20042;-67
2023/09/20 10:06:32;;;;;;;;;;;24.80;99.90;;;;;;4897755;29;19930;-67
2023/09/20 10:09:00;;;;;;;;;;;24.90;99.90;;;;;;4914144;29;19930;-67
2023/09/20 10:11:25;;;;;;;;;;;25.10;99.90;;;;;;4908729;29;19936;-68
2023/09/20 10:13:51;;;;;;;;;;;25.10;99.90;;;;;;4908767;29;19939;-69
2023/09/20 10:16:17;;;;;;;;;;;25.20;99.90;;;;;;4906526;29;19932;-69
2023/09/20 10:18:51;;;;;;;;;;;25.30;99.90;;;;;;4917125;28;19966;-71
2023/09/20 10:21:20;;;;;;;;;;;25.40;99.90;;;;;;4932257;28;19977;-70
2023/09/20 10:23:47;;;;;;;;;;;25.50;99.90;;;;;;4927729;28;19956;-70
2023/09/20 10:26:13;;;;;;;;;;;25.50;99.90;;;;;;4930644;28;19933;-70
2023/09/20 10:28:45;;;;;;;;;;;25.50;99.90;;;;;;4929212;28;20016;-67
2023/09/20 10:31:18;;;;;;;;;;;25.50;99.90;;;;;;4911985;28;20342;-66
2023/09/20 10:33:48;;;;;;;;;;;25.60;99.90;;;;;;4937931;28;20041;-65
2023/09/20 10:36:19;;;;;;;;;;;25.70;99.90;;;;;;4923830;28;19936;-65
2023/09/20 10:38:46;;;;;;;;;;;25.80;99.90;;;;;;4934911;28;19927;-65
2023/09/20 10:41:12;;;;;;;;;;;25.70;99.90;;;;;;4927695;28;20407;-65
2023/09/20 10:43:38;;;;;;;;;;;25.70;99.90;;;;;;4926194;28;19939;-65
2023/09/20 10:46:05;;;;;;;;;;;25.80;99.90;;;;;;4933188;28;20339;-70
2023/09/20 10:48:32;;;;;;;;;;;25.80;99.90;;;;;;4926214;28;20001;-69
2023/09/20 10:50:58;;;;;;;;;;;25.70;99.90;;;;;;4938535;28;21171;-69
2023/09/20 10:53:43;;;;;;;;;;;25.70;99.90;;;;;;4936096;28;19933;-70
2023/09/20 10:56:09;;;;;;;;;;;25.70;99.90;;;;;;4933257;28;20024;-71
2023/09/20 10:58:36;;;;;;;;;;;25.80;99.90;;;;;;4938847;28;19945;-70
2023/09/20 11:01:03;;;;;;;;;;;25.80;99.90;;;;;;4918963;28;20001;-71
2023/09/20 11:03:29;;;;;;;;;;;25.80;99.90;;;;;;4921302;28;20131;-70
2023/09/20 11:05:55;;;;;;;;;;;25.90;99.90;;;;;;4939248;28;19931;-70
2023/09/20 11:08:23;;;;;;;;;;;26.00;99.90;;;;;;4935323;28;19958;-70
2023/09/20 11:10:49;;;;;;;;;;;26.10;99.90;;;;;;4938136;28;19932;-70
2023/09/20 11:13:19;;;;;;;;;;;26.30;99.90;;;;;;4937606;28;20001;-70
2023/09/20 11:15:48;;;;;;;;;;;26.30;99.90;;;;;;4937489;28;19973;-71
2023/09/20 11:18:17;;;;;;;;;;;26.30;99.90;;;;;;4937463;28;19931;-71
2023/09/20 11:20:43;;;;;;;;;;;26.30;99.90;;;;;;4936517;28;20435;-70
2023/09/20 11:23:09;;;;;;;;;;;26.40;99.80;;;;;;4936135;28;19939;-70
2023/09/20 11:25:36;;;;;;;;;;;26.40;99.70;;;;;;4917269;29;19946;-70
2023/09/20 11:28:02;;;;;;;;;;;26.30;98.60;;;;;;4936694;28;19937;-70
2023/09/20 11:30:28;;;;;;;;;;;26.30;99.30;;;;;;4938383;28;20023;-70
2023/09/20 11:32:54;;;;;;;;;;;26.40;99.10;;;;;;4939751;28;19939;-70
2023/09/20 11:35:33;;;;;;;;;;;26.30;99.70;;;;;;4938806;28;19957;-70
2023/09/20 11:38:00;;;;;;;;;;;26.30;99.40;;;;;;4927499;28;19929;-70
2023/09/20 11:40:25;;;;;;;;;;;26.40;99.00;;;;;;4918790;28;19986;-70
2023/09/20 11:42:52;;;;;;;;;;;26.40;99.30;;;;;;4934477;28;19926;-69
2023/09/20 11:45:18;;;;;;;;;;;26.40;99.20;;;;;;4938150;28;19993;-69
2023/09/20 11:47:44;;;;;;;;;;;26.50;99.40;;;;;;4934223;28;20011;-70
2023/09/20 11:50:13;;;;;;;;;;;26.70;99.10;;;;;;4935214;28;19989;-69
2023/09/20 11:52:48;;;;;;;;;;;26.70;98.30;;;;;;4936452;28;20037;-71
2023/09/20 11:55:15;;;;;;;;;;;26.70;98.40;;;;;;4938691;28;20087;-71
2023/09/20 11:57:46;;;;;;;;;;;26.50;98.70;;;;;;4937468;28;19933;-72
2023/09/20 12:00:19;;;;;;;;;;;26.40;98.50;;;;;;4935724;28;19997;-72
2023/09/20 12:02:45;;;;;;;;;;;26.10;98.90;;;;;;4927682;28;19946;-73
2023/09/20 12:05:11;;;;;;;;;;;26.20;98.50;;;;;;4938335;28;19930;-72
2023/09/20 12:07:37;;;;;;;;;;;26.20;99.00;;;;;;4935476;28;19935;-71
2023/09/20 12:10:02;;;;;;;;;;;26.30;97.90;;;;;;4940958;28;19922;-71
2023/09/20 12:12:31;;;;;;;;;;;26.20;97.80;;;;;;4938675;28;19945;-68
2023/09/20 12:14:56;;;;;;;;;;;26.10;98.90;;;;;;4937809;28;19938;-69
2023/09/20 12:17:22;;;;;;;;;;;26.10;99.40;;;;;;4941541;28;19954;-72
2023/09/20 12:19:47;;;;;;;;;;;26.10;99.20;;;;;;4930561;28;19991;-65
2023/09/20 12:22:13;;;;;;;;;;;26.00;99.50;;;;;;4923297;29;19982;-67
2023/09/20 12:24:39;;;;;;;;;;;26.00;99.90;;;;;;4920209;29;20029;-66
2023/09/20 12:27:05;;;;;;;;;;;26.00;99.90;;;;;;4914509;29;19959;-66
2023/09/20 12:29:30;;;;;;;;;;;26.00;99.90;;;;;;4906585;29;19985;-67
2023/09/20 12:31:56;;;;;;;;;;;26.10;99.90;;;;;;4917256;29;19940;-66
2023/09/20 12:34:21;;;;;;;;;;;26.40;99.00;;;;;;4918563;29;20025;-66
2023/09/20 12:36:48;;;;;;;;;;;26.40;99.00;;;;;;4917168;29;19933;-66
2023/09/20 12:39:14;;;;;;;;;;;26.40;99.60;;;;;;4914031;29;19939;-66
2023/09/20 12:41:42;;;;;;;;;;;26.30;99.00;;;;;;4914884;29;19945;-66
2023/09/20 12:44:08;;;;;;;;;;;26.20;99.30;;;;;;4918890;29;19925;-67
2023/09/20 12:46:36;;;;;;;;;;;26.30;99.70;;;;;;4905814;29;20074;-67
2023/09/20 12:49:02;;;;;;;;;;;26.50;99.00;;;;;;4911685;29;19974;-66
2023/09/20 12:51:28;;;;;;;;;;;26.60;99.30;;;;;;4929842;28;20610;-66
2023/09/20 12:53:54;;;;;;;;;;;26.70;99.20;;;;;;4916403;29;19933;-65
2023/09/20 12:56:20;;;;;;;;;;;26.80;98.30;;;;;;4915227;29;19935;-65
2023/09/20 12:58:46;;;;;;;;;;;26.90;97.60;;;;;;4923194;29;19937;-66
2023/09/20 13:01:11;;;;;;;;;;;26.80;98.00;;;;;;4918349;29;20043;-66
2023/09/20 13:03:43;;;;;;;;;;;26.70;97.70;;;;;;4920366;29;19949;-66
2023/09/20 13:06:11;;;;;;;;;;;26.40;98.00;;;;;;4924556;29;20023;-66
2023/09/20 13:08:38;;;;;;;;;;;26.30;98.20;;;;;;4918325;29;19934;-66
2023/09/20 13:11:05;;;;;;;;;;;26.40;98.50;;;;;;4917195;29;19931;-66
2023/09/20 13:13:31;;;;;;;;;;;26.40;98.60;;;;;;4918573;29;19942;-65
2023/09/20 13:15:57;;;;;;;;;;;26.50;98.40;;;;;;4918846;29;20725;-65
2023/09/20 13:18:22;;;;;;;;;;;26.70;98.30;;;;;;4919300;29;19928;-66
2023/09/20 13:20:48;;;;;;;;;;;26.90;97.90;;;;;;4938822;28;19954;-66
2023/09/20 13:23:13;;;;;;;;;;;27.00;98.40;;;;;;4939218;28;20057;-66
2023/09/20 13:25:42;;;;;;;;;;;27.20;97.90;;;;;;4939775;28;19995;-65
2023/09/20 13:28:08;;;;;;;;;;;27.30;96.90;;;;;;4940862;28;19986;-66
2023/09/20 13:30:35;;;;;;;;;;;27.30;96.70;;;;;;4937089;28;19928;-66
2023/09/20 13:33:05;;;;;;;;;;;27.30;96.90;;;;;;4940977;28;19928;-64
2023/09/20 13:35:30;;;;;;;;;;;27.30;96.90;;;;;;4938500;28;19959;-66
2023/09/20 13:37:56;;;;;;;;;;;27.30;96.30;;;;;;4940530;28;19935;-66
2023/09/20 13:40:23;;;;;;;;;;;27.30;96.20;;;;;;4941845;28;20636;-66
2023/09/20 13:42:49;;;;;;;;;;;27.30;95.80;;;;;;4939334;28;19997;-66
2023/09/20 13:45:15;;;;;;;;;;;27.50;96.40;;;;;;4933606;28;19932;-66
2023/09/20 13:47:41;;;;;;;;;;;27.60;95.80;;;;;;4920749;28;19939;-67
2023/09/20 13:50:08;;;;;;;;;;;27.70;95.20;;;;;;4940357;28;19944;-66
2023/09/20 13:52:34;;;;;;;;;;;27.60;94.60;;;;;;4936717;28;19928;-66
2023/09/20 13:54:59;;;;;;;;;;;27.60;94.70;;;;;;4939366;28;19976;-66
2023/09/20 13:57:25;;;;;;;;;;;27.60;94.90;;;;;;4938304;28;19985;-66
2023/09/20 13:59:54;;;;;;;;;;;27.80;94.90;;;;;;4935957;28;20547;-67
2023/09/20 14:02:20;;;;;;;;;;;28.00;94.30;;;;;;4939113;28;19933;-67
2023/09/20 14:04:45;;;;;;;;;;;28.10;93.10;;;;;;4936941;28;19943;-66
2023/09/20 14:07:12;;;;;;;;;;;28.30;93.00;;;;;;4939043;28;20541;-67
2023/09/20 14:09:41;;;;;;;;;;;28.30;93.20;;;;;;4936745;28;19934;-67
2023/09/20 14:12:08;;;;;;;;;;;28.20;92.80;;;;;;4941581;28;19970;-67
2023/09/20 14:14:33;;;;;;;;;;;28.20;93.70;;;;;;4940216;28;20019;-67
2023/09/20 14:16:59;;;;;;;;;;;28.20;92.80;;;;;;4939779;28;19972;-67
2023/09/20 14:19:24;;;;;;;;;;;28.20;92.40;;;;;;4936811;28;20026;-67
2023/09/20 14:21:50;;;;;;;;;;;28.10;92.30;;;;;;4935963;28;19992;-68
2023/09/20 14:24:15;;;;;;;;;;;28.00;91.70;;;;;;4938263;28;19939;-67
2023/09/20 14:26:41;;;;;;;;;;;27.90;91.70;;;;;;4938680;28;20020;-67
2023/09/20 14:29:10;;;;;;;;;;;27.70;92.10;;;;;;4937123;28;19974;-67
2023/09/20 14:31:37;;;;;;;;;;;27.60;91.60;;;;;;4954619;28;19944;-66
2023/09/20 14:34:03;;;;;;;;;;;27.60;92.40;;;;;;4932305;28;20069;-66
2023/09/20 14:36:29;;;;;;;;;;;27.80;92.10;;;;;;4934773;28;20339;-66
2023/09/20 14:38:58;;;;;;;;;;;28.10;92.60;;;;;;4941127;28;20047;-67
2023/09/20 14:41:23;;;;;;;;;;;28.40;91.80;;;;;;4921171;28;19961;-66
2023/09/20 14:43:49;;;;;;;;;;;28.70;90.50;;;;;;4937935;28;20297;-66
2023/09/20 14:46:16;;;;;;;;;;;29.00;90.50;;;;;;4931388;28;20040;-67
2023/09/20 14:48:42;;;;;;;;;;;29.90;87.50;;;;;;4932358;28;19931;-67
2023/09/20 14:51:14;;;;;;;;;;;30.50;85.60;;;;;;4934758;28;20306;-69
2023/09/20 14:53:41;;;;;;;;;;;30.20;85.00;;;;;;4934778;28;20366;-67